Time;durP1;ratioP1;P1;durP2;ratioP2;P2;SDS_P1;SDS_P2;PMS_P1;PMS_P2;Temp;Humidity;BMP_temperature;BMP_pressure;BME280_temperature;BME280_humidity;BME280_pressure;Samples;Min_cycle;Max_cycle;Signal;HPM_P1;HPM_P2
2022/11/08 00:01:30;;;;;;;0.70;0.60;;;;;;;17.34;97.07;100570.91;20806760;28;20099;-89
2022/11/08 00:18:17;;;;;;;0.70;0.50;;;;;;;17.34;96.88;100570.91;20821867;28;20115;-89
2022/11/08 00:28:19;;;;;;;0.70;0.60;;;;;;;17.23;97.08;100551.22;20806693;28;20057;-89
2022/11/08 00:38:21;;;;;;;1.50;0.60;;;;;;;17.33;97.01;100569.22;20832076;28;20049;-88
2022/11/08 00:48:22;;;;;;;0.55;0.50;;;;;;;17.33;96.90;100553.06;20811427;28;20587;-88
2022/11/08 00:58:23;;;;;;;0.50;0.40;;;;;;;17.32;96.84;100562.97;20872507;28;20060;-89
2022/11/08 01:08:28;;;;;;;0.30;0.30;;;;;;;17.30;96.93;100553.34;20798795;28;20168;-89
2022/11/08 01:18:29;;;;;;;0.77;0.50;;;;;;;17.21;97.01;100537.03;20709561;28;20308;-89
2022/11/08 01:28:32;;;;;;;0.90;0.50;;;;;;;17.31;96.81;100549.66;20744508;28;20056;-89
2022/11/08 01:38:33;;;;;;;0.50;0.40;;;;;;;17.08;96.88;100504.19;20780406;28;20133;-89
2022/11/08 01:48:38;;;;;;;0.70;0.55;;;;;;;17.30;96.84;100538.03;20784746;28;20049;-89
2022/11/08 01:58:40;;;;;;;0.40;0.40;;;;;;;17.12;96.85;100512.84;20791195;28;20508;-88
2022/11/08 02:08:43;;;;;;;0.52;0.52;;;;;;;17.09;96.88;100503.19;20800760;28;20587;-89
2022/11/08 02:18:45;;;;;;;0.68;0.40;;;;;;;17.29;96.90;100513.97;20792223;28;20069;-88
2022/11/08 02:28:47;;;;;;;0.65;0.52;;;;;;;17.09;96.79;100477.16;20790483;28;20050;-88
2022/11/08 02:38:51;;;;;;;0.70;0.50;;;;;;;17.29;96.81;100497.84;20753752;28;20490;-89
2022/11/08 02:48:53;;;;;;;0.73;0.40;;;;;;;17.06;96.79;100457.75;20832825;28;20045;-88
2022/11/08 02:58:54;;;;;;;0.50;0.50;;;;;;;17.29;96.68;100492.47;20825370;28;20409;-88
2022/11/08 03:08:56;;;;;;;0.57;0.50;;;;;;;17.28;96.77;100490.75;20826770;28;20533;-88
2022/11/08 03:18:57;;;;;;;0.77;0.40;;;;;;;17.27;96.72;100489.91;20812191;28;20073;-89
2022/11/08 03:29:00;;;;;;;0.73;0.50;;;;;;;17.08;96.66;100453.09;20797676;28;20069;-89
2022/11/08 03:39:01;;;;;;;0.60;0.43;;;;;;;17.17;96.63;100454.91;20789607;28;20048;-89
2022/11/08 03:49:03;;;;;;;0.90;0.50;;;;;;;17.16;96.56;100445.16;20817429;28;20045;-89
2022/11/08 03:59:04;;;;;;;0.38;0.30;;;;;;;16.86;96.63;100385.16;20808081;28;20405;-88
2022/11/08 04:09:06;;;;;;;0.47;0.43;;;;;;;17.25;96.65;100436.25;20761355;28;20049;-87
2022/11/08 04:29:28;;;;;;;0.40;0.32;;;;;;;17.26;96.59;100410.19;20802636;28;21063;-89
2022/11/08 04:39:30;;;;;;;0.40;0.40;;;;;;;17.07;96.56;100357.25;20819896;28;20057;-88
2022/11/08 04:49:31;;;;;;;0.30;0.30;;;;;;;17.04;96.40;100338.72;20825900;28;20053;-88
2022/11/08 04:59:33;;;;;;;1.00;0.52;;;;;;;17.25;96.39;100363.63;20834287;28;20564;-89
2022/11/08 05:09:34;;;;;;;0.60;0.40;;;;;;;17.25;96.62;100363.63;20820056;28;20110;-89
2022/11/08 05:29:56;;;;;;;0.60;0.52;;;;;;;16.91;96.43;100295.97;20812834;28;20045;-88
2022/11/08 05:39:57;;;;;;;0.75;0.30;;;;;;;17.24;96.37;100345.78;20804521;28;20053;-89
2022/11/08 05:49:58;;;;;;;0.38;0.38;;;;;;;17.14;96.23;100309.97;20814749;28;20064;-89
2022/11/08 06:00:00;;;;;;;0.70;0.30;;;;;;;17.23;96.42;100295.66;20823597;28;20073;-88
2022/11/08 06:10:12;;;;;;;0.77;0.38;;;;;;;17.24;96.19;100281.22;20825128;28;20054;-89
2022/11/08 06:20:13;;;;;;;2.10;0.70;;;;;;;17.24;97.12;100267.75;20780930;28;20041;-94
2022/11/08 06:30:15;;;;;;;1.95;0.85;;;;;;;17.21;100.00;100256.44;20768995;28;20076;-93
2022/11/08 06:40:16;;;;;;;3.83;0.80;;;;;;;17.28;100.00;100259.41;20819109;28;20056;-92
2022/11/08 06:50:18;;;;;;;3.25;0.80;;;;;;;17.44;100.00;100261.44;20784749;28;20452;-91
2022/11/08 07:00:20;;;;;;;2.88;0.90;;;;;;;17.16;100.00;100196.88;20822015;28;20128;-94
2022/11/08 07:10:24;;;;;;;1.38;0.60;;;;;;;17.50;100.00;100250.09;20819768;28;20072;-91
2022/11/08 07:20:25;;;;;;;1.17;0.70;;;;;;;17.51;99.93;100260.69;20777550;28;20048;-92
2022/11/08 07:30:27;;;;;;;1.35;0.75;;;;;;;17.52;99.86;100251.63;20773665;28;20490;-91
2022/11/08 07:40:29;;;;;;;1.98;0.80;;;;;;;17.46;98.88;100246.84;20722208;28;20046;-91
2022/11/08 07:50:31;;;;;;;1.13;0.50;;;;;;;17.57;98.25;100242.25;20738684;28;20064;-91
2022/11/08 08:00:37;;;;;;;1.20;0.60;;;;;;;17.33;97.98;100198.75;20788730;28;21153;-91
2022/11/08 08:10:39;;;;;;;2.05;0.70;;;;;;;17.57;97.84;100224.25;20789022;28;20054;-94
2022/11/08 08:20:42;;;;;;;2.42;0.80;;;;;;;17.00;100.00;100122.19;20750928;28;20070;-90
2022/11/08 08:30:43;;;;;;;3.40;1.15;;;;;;;17.30;100.00;100153.31;20750377;28;20053;-91
2022/11/08 08:40:45;;;;;;;1.23;0.52;;;;;;;17.11;100.00;100135.44;20749837;28;20050;-91
2022/11/08 08:50:47;;;;;;;1.55;0.82;;;;;;;17.45;100.00;100153.66;20748750;28;20053;-90
2022/11/08 09:00:48;;;;;;;2.00;0.60;;;;;;;17.54;100.00;100168.88;20751724;28;20375;-88
2022/11/08 09:11:10;;;;;;;0.90;0.65;;;;;;;17.51;100.00;100176.44;20766892;28;20052;-88
2022/11/08 09:21:11;;;;;;;3.75;0.98;;;;;;;17.29;100.00;100164.25;20740504;28;20135;-88
2022/11/08 09:31:13;;;;;;;1.90;0.80;;;;;;;17.47;100.00;100180.44;20774993;28;20056;-87
2022/11/08 09:41:21;;;;;;;2.65;0.75;;;;;;;17.47;100.00;100181.25;20776686;28;20561;-89
2022/11/08 09:51:23;;;;;;;1.88;0.70;;;;;;;17.45;100.00;100161.72;20767754;28;20519;-88
2022/11/08 10:01:25;;;;;;;1.88;0.70;;;;;;;16.63;100.00;100033.34;20791490;28;20052;-89
2022/11/08 10:11:56;;;;;;;1.63;0.65;;;;;;;17.44;100.00;100156.47;20758459;28;20523;-87
2022/11/08 10:22:09;;;;;;;1.83;0.77;;;;;;;17.18;100.00;100115.00;20756102;28;20203;-89
2022/11/08 10:32:20;;;;;;;3.42;1.13;;;;;;;17.41;100.00;100114.59;20757845;28;20061;-86
2022/11/08 10:42:36;;;;;;;1.92;0.80;;;;;;;17.21;100.00;100124.63;20754595;28;20131;-89
2022/11/08 10:52:43;;;;;;;1.65;0.60;;;;;;;17.30;100.00;100130.97;20761261;28;20052;-89
2022/11/08 11:02:52;;;;;;;1.55;0.55;;;;;;;17.22;100.00;100110.19;20742837;28;20517;-88
2022/11/08 11:13:00;;;;;;;0.77;0.63;;;;;;;17.39;100.00;100148.88;20753969;28;20242;-91
2022/11/08 11:23:01;;;;;;;1.45;0.60;;;;;;;17.37;100.00;100134.75;20766235;28;20049;-88
2022/11/08 11:33:05;;;;;;;0.90;0.65;;;;;;;16.84;100.00;100036.78;20763898;28;20057;-91
2022/11/08 11:43:28;;;;;;;1.37;0.60;;;;;;;17.38;100.00;100131.88;20750302;28;20045;-88
2022/11/08 11:53:35;;;;;;;1.48;0.55;;;;;;;17.38;100.00;100101.44;20741074;28;20069;-87
2022/11/08 12:04:17;;;;;;;1.00;0.50;;;;;;;16.40;100.00;99933.50;20743819;28;20087;-89
2022/11/08 12:14:40;;;;;;;1.25;0.57;;;;;;;17.37;99.66;100091.69;20759196;28;20061;-89
2022/11/08 12:25:04;;;;;;;0.88;0.60;;;;;;;17.37;99.76;100083.63;20755651;28;20057;-88
2022/11/08 12:35:18;;;;;;;1.08;0.60;;;;;;;17.37;99.99;100076.38;20758083;28;21517;-89
2022/11/08 12:45:28;;;;;;;1.23;0.60;;;;;;;17.36;99.72;100076.53;20762992;28;20061;-87
2022/11/08 12:55:38;;;;;;;1.67;0.68;;;;;;;17.36;99.46;100080.06;20764562;28;20079;-87
2022/11/08 13:05:52;;;;;;;1.08;0.60;;;;;;;17.08;99.75;100017.41;20781016;28;20180;-87
2022/11/08 13:16:14;;;;;;;0.57;0.50;;;;;;;17.36;99.70;100063.09;20807168;28;20122;-87
2022/11/08 13:26:23;;;;;;;1.20;0.82;;;;;;;17.37;99.85;100064.78;20802967;28;20514;-87
2022/11/08 13:36:38;;;;;;;1.33;0.70;;;;;;;17.36;99.73;100068.47;20801093;28;20045;-86
2022/11/08 13:46:44;;;;;;;0.60;0.60;;;;;;;17.36;99.71;100057.72;20815311;28;20042;-87
2022/11/08 13:56:48;;;;;;;0.93;0.60;;;;;;;17.36;99.77;100063.09;20806013;28;20072;-87
2022/11/08 14:07:06;;;;;;;0.90;0.52;;;;;;;17.36;99.53;100068.47;20801852;28;20050;-87
2022/11/08 14:17:33;;;;;;;1.85;0.73;;;;;;;17.35;99.78;100067.63;20824671;28;20049;-87
2022/11/08 14:27:37;;;;;;;1.17;0.73;;;;;;;17.25;99.68;100056.94;20819584;28;20072;-87
2022/11/08 14:37:41;;;;;;;3.03;0.70;;;;;;;17.35;99.67;100072.16;20821418;28;20061;-86
2022/11/08 14:47:43;;;;;;;2.05;0.70;;;;;;;17.13;99.68;100036.63;20791392;28;20057;-87
2022/11/08 14:57:45;;;;;;;0.90;0.50;;;;;;;17.34;99.72;100065.09;20798612;28;20045;-87
2022/11/08 15:07:47;;;;;;;1.20;0.60;;;;;;;17.24;99.71;100052.56;20797584;28;20088;-87
2022/11/08 15:18:16;;;;;;;1.60;0.80;;;;;;;17.33;99.62;100064.22;20779720;28;20072;-86
2022/11/08 15:28:22;;;;;;;1.10;0.75;;;;;;;17.33;99.46;100063.41;20738946;28;20045;-93
2022/11/08 15:38:32;;;;;;;1.13;0.70;;;;;;;17.32;100.00;100061.72;20799109;28;20046;-93
2022/11/08 15:48:33;;;;;;;1.48;0.82;;;;;;;17.33;100.00;100066.09;20787580;28;20044;-90
2022/11/08 15:58:38;;;;;;;2.80;0.80;;;;;;;17.32;100.00;100059.84;20757237;28;20516;-86
2022/11/08 16:08:40;;;;;;;1.35;0.77;;;;;;;17.32;100.00;100048.25;20762931;28;20138;-89
2022/11/08 16:18:42;;;;;;;1.40;1.02;;;;;;;17.26;100.00;100033.56;20757770;28;20191;-92
2022/11/08 16:28:44;;;;;;;0.95;0.65;;;;;;;17.32;100.00;100050.94;20754764;28;20060;-88
2022/11/08 16:39:05;;;;;;;1.45;0.75;;;;;;;17.23;100.00;100031.19;20760784;28;20103;-92
2022/11/08 16:49:16;;;;;;;2.97;1.10;;;;;;;17.31;100.00;100043.88;20772626;28;20052;-91
2022/11/08 16:59:17;;;;;;;1.67;1.10;;;;;;;17.29;100.00;100035.13;20768284;28;20049;-90
2022/11/08 17:09:19;;;;;;;4.28;1.73;;;;;;;17.17;100.00;100008.44;20740152;28;20127;-92
2022/11/08 17:19:21;;;;;;;2.60;1.17;;;;;;;17.29;100.00;100027.06;20750468;28;20525;-93
2022/11/08 17:29:23;;;;;;;2.42;1.17;;;;;;;17.19;100.00;100019.88;20767542;28;20056;-95
2022/11/08 17:39:24;;;;;;;4.05;1.15;;;;;;;17.28;100.00;100045.03;20762417;28;20124;-94
2022/11/08 17:49:26;;;;;;;5.18;1.13;;;;;;;17.16;100.00;100036.31;20755579;28;20052;-92
2022/11/08 17:59:27;;;;;;;9.52;3.55;;;;;;;17.01;100.00;100005.59;20752243;28;20096;-92
2022/11/08 18:09:29;;;;;;;14.40;4.75;;;;;;;17.38;100.00;100055.72;20779126;28;20052;-88
2022/11/08 18:19:31;;;;;;;8.63;2.70;;;;;;;17.47;100.00;100054.78;20754676;28;20053;-93
2022/11/08 18:29:32;;;;;;;8.38;3.05;;;;;;;17.52;100.00;100079.38;20802835;28;20061;-89
2022/11/08 18:39:34;;;;;;;10.30;3.17;;;;;;;17.57;100.00;100070.00;20776798;28;20727;-94
2022/11/08 18:49:36;;;;;;;7.75;3.35;;;;;;;17.48;100.00;100052.94;20796286;28;20057;-94
2022/11/08 18:59:37;;;;;;;6.82;2.63;;;;;;;17.60;100.00;100080.44;20765200;28;20060;-95
2022/11/08 19:09:39;;;;;;;7.18;2.70;;;;;;;17.60;100.00;100061.63;20792871;28;20053;-92
2022/11/08 19:19:40;;;;;;;4.28;1.95;;;;;;;17.57;100.00;100070.00;20803849;28;20395;-91
2022/11/08 19:29:42;;;;;;;7.13;2.60;;;;;;;17.57;100.00;100059.22;20801905;28;20125;-94
2022/11/08 19:39:43;;;;;;;5.97;2.35;;;;;;;17.52;100.00;100057.84;20830659;28;20131;-94
2022/11/08 19:49:45;;;;;;;7.70;3.00;;;;;;;17.49;100.00;100057.34;20807517;28;20053;-93
2022/11/08 19:59:46;;;;;;;4.93;2.08;;;;;;;17.47;100.00;100057.47;20803811;28;20515;-93
2022/11/08 20:09:48;;;;;;;7.40;2.80;;;;;;;17.44;100.00;100060.47;20834104;28;20118;-92
2022/11/08 20:19:50;;;;;;;5.20;2.78;;;;;;;17.20;100.00;100029.63;20767962;28;20088;-94
2022/11/08 20:29:52;;;;;;;5.50;2.55;;;;;;;17.40;100.00;100064.47;20785437;28;20128;-94
2022/11/08 20:39:53;;;;;;;5.25;2.20;;;;;;;17.39;100.00;100066.31;20763256;28;20061;-94
2022/11/08 20:49:56;;;;;;;3.80;1.85;;;;;;;16.88;100.00;99997.84;20789152;28;20048;-94
2022/11/08 20:59:57;;;;;;;4.82;2.38;;;;;;;17.38;100.00;100071.84;20791654;28;20053;-92
2022/11/08 21:10:13;;;;;;;5.65;2.15;;;;;;;17.25;100.00;100056.94;20788521;28;20498;-91
2022/11/08 21:20:34;;;;;;;3.60;1.73;;;;;;;17.25;100.00;100058.78;20790244;28;20053;-93
2022/11/08 21:30:36;;;;;;;4.13;1.77;;;;;;;17.36;100.00;100068.47;20798463;28;20128;-92
2022/11/08 21:40:38;;;;;;;5.43;2.20;;;;;;;17.36;100.00;100090.00;20796573;28;20045;-92
2022/11/08 21:50:39;;;;;;;3.72;1.60;;;;;;;17.35;100.00;100104.44;20816092;28;20048;-93
2022/11/08 22:00:41;;;;;;;4.55;2.00;;;;;;;17.35;100.00;100104.44;20807472;28;20111;-92
2022/11/08 22:10:44;;;;;;;4.03;1.77;;;;;;;17.25;100.00;100082.97;20811878;28;20140;-93
2022/11/08 22:31:08;;;;;;;4.75;1.98;;;;;;;17.33;100.00;100095.69;20761397;28;20085;-94
2022/11/08 22:41:10;;;;;;;3.45;1.88;;;;;;;17.32;100.00;100102.06;20761117;28;20502;-92
2022/11/08 22:51:12;;;;;;;3.30;1.70;;;;;;;17.00;100.00;100047.75;20788600;28;20422;-93
2022/11/08 23:01:14;;;;;;;2.92;1.52;;;;;;;17.02;100.00;100044.91;20810746;28;20052;-95
2022/11/08 23:31:56;;;;;;;2.63;1.40;;;;;;;17.11;100.00;100049.38;20774827;28;20042;-93
2022/11/08 23:52:18;;;;;;;3.10;1.50;;;;;;;16.92;100.00;100026.97;20794956;28;20557;-94
